createdAt,value
2019-03-10T00:04:29.427Z,6.114197
2019-03-10T00:09:52.202Z,6.345825
2019-03-10T00:15:14.845Z,6.194763
2019-03-10T00:20:37.672Z,6.134338
2019-03-10T00:26:00.954Z,6.083984
2019-03-10T00:31:23.829Z,6.053772
2019-03-10T00:36:46.482Z,5.812073
2019-03-10T00:42:09.146Z,6.013489
2019-03-10T00:47:32.515Z,5.922852
2019-03-10T00:52:55.618Z,6.063843
2019-03-10T00:58:20.563Z,5.953064
2019-03-10T01:03:43.612Z,6.174622
2019-03-10T01:09:06.310Z,6.134338
2019-03-10T01:14:28.997Z,6.053772
2019-03-10T01:19:51.634Z,6.164551
2019-03-10T01:25:15.190Z,6.174622
2019-03-10T01:30:38.436Z,6.174622
2019-03-10T01:36:01.406Z,6.134338
2019-03-10T01:41:25.122Z,6.083984
2019-03-10T01:46:48.472Z,5.953064
2019-03-10T01:52:11.725Z,5.701294
2019-03-10T01:57:35.204Z,5.671082
2019-03-10T02:02:58.583Z,5.671082
2019-03-10T02:08:21.313Z,5.691223
2019-03-10T02:13:44.021Z,5.77179
2019-03-10T02:19:06.702Z,5.802002
2019-03-10T02:24:29.338Z,5.872498
2019-03-10T02:29:52.175Z,5.882568
2019-03-10T02:35:15.221Z,5.78186
2019-03-10T02:40:37.967Z,5.832214
2019-03-10T02:46:00.651Z,5.872498
2019-03-10T02:51:23.560Z,5.77179
2019-03-10T02:56:46.308Z,5.691223
2019-03-10T03:02:08.970Z,5.731506
2019-03-10T03:07:31.650Z,5.78186
2019-03-10T03:12:54.390Z,5.832214
2019-03-10T03:18:17.145Z,5.832214
2019-03-10T03:23:39.842Z,5.842285
2019-03-10T03:29:02.495Z,5.751648
2019-03-10T03:34:26.176Z,5.701294
2019-03-10T03:39:48.859Z,5.77179
2019-03-10T03:45:11.596Z,5.78186
2019-03-10T03:50:34.315Z,5.701294
2019-03-10T03:55:57.358Z,5.671082
2019-03-10T04:01:20.917Z,5.580444
2019-03-10T04:06:43.630Z,5.600586
2019-03-10T04:12:06.316Z,5.590515
2019-03-10T04:17:28.980Z,5.489807
2019-03-10T04:22:52.677Z,5.409241
2019-03-10T04:28:15.433Z,5.479736
2019-03-10T04:33:39.048Z,5.439453
2019-03-10T04:39:02.172Z,5.469666
2019-03-10T04:44:25.046Z,5.489807
2019-03-10T04:49:47.846Z,5.449524
2019-03-10T04:55:10.704Z,5.409241
2019-03-10T05:00:33.392Z,5.600586
2019-03-10T05:05:55.991Z,5.620728
2019-03-10T05:11:18.750Z,5.661011
2019-03-10T05:16:41.389Z,5.701294
2019-03-10T05:22:04.204Z,5.671082
2019-03-10T05:27:26.985Z,5.671082
2019-03-10T05:32:50.001Z,5.65094
2019-03-10T05:38:14.433Z,5.620728
2019-03-10T05:43:37.305Z,5.560303
2019-03-10T05:49:00.332Z,5.449524
2019-03-10T05:54:23.015Z,5.298462
2019-03-10T05:59:47.110Z,5.187683
2019-03-10T06:05:18.886Z,5.056763
2019-03-10T06:10:42.291Z,4.966125
2019-03-10T06:16:05.054Z,4.935913
2019-03-10T06:21:28.984Z,4.875488
2019-03-10T06:26:51.624Z,4.804993
2019-03-10T06:32:14.299Z,4.77478
2019-03-10T06:37:42.068Z,4.724426
2019-03-10T06:43:05.358Z,4.684143
2019-03-10T06:48:28.937Z,4.64386
2019-03-10T06:53:52.759Z,4.613647
2019-03-10T06:59:15.743Z,4.613647
2019-03-10T07:04:38.515Z,4.593506
2019-03-10T07:10:02.203Z,4.422302
2019-03-10T07:15:25.627Z,4.251099
2019-03-10T07:20:48.409Z,4.241028
2019-03-10T07:26:12.145Z,4.311523
2019-03-10T07:31:35.394Z,4.472656
2019-03-10T07:37:01.430Z,4.462585
2019-03-10T07:42:24.054Z,4.472656
2019-03-10T07:47:46.818Z,4.462585
2019-03-10T07:53:09.516Z,4.422302
2019-03-10T07:58:32.177Z,4.351807
2019-03-10T08:03:54.927Z,4.321594
2019-03-10T08:09:17.805Z,4.422302
2019-03-10T08:14:41.079Z,4.512939
2019-03-10T08:20:05.058Z,4.39209
2019-03-10T08:25:27.794Z,4.422302
2019-03-10T08:30:50.451Z,4.512939
2019-03-10T08:36:13.863Z,4.533081
2019-03-10T08:41:36.499Z,4.502869
2019-03-10T08:46:59.526Z,4.684143
2019-03-10T08:52:22.192Z,4.794922
2019-03-10T08:57:44.936Z,4.865417
2019-03-10T09:03:07.717Z,4.593506
2019-03-10T09:08:30.343Z,4.512939
2019-03-10T09:13:52.995Z,4.613647
2019-03-10T09:19:16.923Z,4.724426
2019-03-10T09:24:39.744Z,5.036621
2019-03-10T09:30:02.733Z,4.986267
2019-03-10T09:35:25.656Z,5.1474
2019-03-10T09:40:49.932Z,5.187683
2019-03-10T09:46:11.097Z,5.348816
2019-03-10T09:51:33.870Z,5.318604
2019-03-10T09:56:56.712Z,5.852356
2019-03-10T10:02:19.617Z,5.872498
2019-03-10T10:07:43.711Z,5.77179
2019-03-10T10:13:06.358Z,5.77179
2019-03-10T10:18:30.048Z,5.78186
2019-03-10T10:23:53.260Z,5.812073
2019-03-10T10:29:16.138Z,5.932922
2019-03-10T10:34:38.903Z,5.77179
2019-03-10T10:40:01.704Z,5.812073
2019-03-10T10:45:24.844Z,5.691223
2019-03-10T10:50:47.627Z,5.802002
2019-03-10T10:56:10.469Z,5.671082
2019-03-10T11:01:33.178Z,5.580444
2019-03-10T11:06:55.891Z,5.509949
2019-03-10T11:12:19.547Z,5.449524
2019-03-10T11:17:42.464Z,5.439453
2019-03-10T11:23:06.431Z,5.348816
2019-03-10T11:28:29.096Z,5.39917
2019-03-10T11:33:52.387Z,5.469666
2019-03-10T11:39:15.313Z,5.671082
2019-03-10T11:44:37.181Z,5.630798
2019-03-10T11:49:59.816Z,5.661011
2019-03-10T11:55:22.796Z,5.661011
2019-03-10T12:00:45.399Z,5.65094
2019-03-10T12:06:08.040Z,5.620728
2019-03-10T12:11:30.703Z,5.630798
2019-03-10T12:16:53.383Z,5.439453
2019-03-10T12:22:16.151Z,5.691223
2019-03-10T12:27:39.840Z,5.630798
2019-03-10T12:33:02.678Z,5.600586
2019-03-10T12:38:25.417Z,5.751648
2019-03-10T12:43:49.621Z,5.701294
2019-03-10T12:49:13.097Z,5.701294
2019-03-10T12:54:35.869Z,5.832214
2019-03-10T12:59:59.098Z,6.104126
2019-03-10T13:05:21.872Z,6.245117
2019-03-10T13:10:44.664Z,6.426392
2019-03-10T13:16:07.479Z,6.446533
2019-03-10T13:21:30.483Z,6.506958
2019-03-10T13:26:53.265Z,6.567383
2019-03-10T13:32:18.038Z,6.456604
2019-03-10T13:37:40.725Z,6.53717
2019-03-10T13:43:03.412Z,6.708374
2019-03-10T13:48:26.117Z,6.869507
2019-03-10T13:53:48.797Z,6.829224
2019-03-10T13:59:11.539Z,6.718445
2019-03-10T14:04:35.113Z,6.597595
2019-03-10T14:09:58.842Z,6.426392
2019-03-10T14:15:24.450Z,6.597595
2019-03-10T14:20:47.528Z,6.446533
2019-03-10T14:26:10.553Z,6.476746
2019-03-10T14:31:33.254Z,6.748657
2019-03-10T14:36:55.938Z,7.574463
2019-03-10T14:42:18.698Z,7.725525
2019-03-10T14:47:42.233Z,7.634888
2019-03-10T14:53:05.828Z,7.554321
2019-03-10T14:58:28.672Z,7.54425
2019-03-10T15:03:52.514Z,7.29248
2019-03-10T15:09:15.306Z,7.111206
2019-03-10T15:14:38.070Z,6.929932
2019-03-10T15:20:01.971Z,6.899719
2019-03-10T15:25:25.700Z,6.829224
2019-03-10T15:30:50.302Z,6.819153
2019-03-10T15:36:21.561Z,6.809082
2019-03-10T15:41:53.678Z,6.77887
2019-03-10T15:47:16.662Z,6.678162
2019-03-10T15:52:48.197Z,4.714355
2019-03-10T15:58:11.036Z,3.626709
2019-03-10T16:03:43.203Z,3.173523
2019-03-10T16:09:15.755Z,2.609558
2019-03-10T16:14:39.776Z,2.408142
2019-03-10T16:20:11.463Z,2.085876
2019-03-10T16:25:47.442Z,1.88446
2019-03-10T16:31:10.754Z,1.723328
2019-03-10T16:36:44.809Z,1.652832
2019-03-10T16:42:09.834Z,1.350708
2019-03-10T16:47:32.655Z,1.159363
2019-03-10T16:52:55.452Z,1.109009
2019-03-10T16:58:18.459Z,1.068726
2019-03-10T17:03:49.393Z,0.99823
2019-03-10T17:09:21.428Z,0.917664
2019-03-10T17:21:20.033Z,0.675964
2019-03-10T17:26:54.085Z,0.62561
2019-03-10T17:38:09.310Z,0.555115
2019-03-10T17:43:32.123Z,0.565186
2019-03-10T17:49:05.191Z,0.534973
2019-03-10T17:54:37.177Z,0.524902
2019-03-10T18:00:03.690Z,0.534973
2019-03-10T18:05:37.862Z,0.524902
2019-03-10T18:17:44.897Z,0.565186
2019-03-10T18:23:07.762Z,0.595398
2019-03-10T18:28:39.576Z,0.585327
2019-03-10T18:34:02.504Z,0.555115
2019-03-10T18:39:36.187Z,0.555115
2019-03-10T18:45:09.928Z,0.555115
2019-03-10T18:50:42.817Z,0.534973
2019-03-10T18:56:05.829Z,0.524902
2019-03-10T19:01:39.852Z,0.514832
2019-03-10T19:07:04.118Z,0.585327
2019-03-10T19:12:26.699Z,0.595398
2019-03-10T19:18:02.236Z,0.585327
2019-03-10T19:23:32.393Z,0.585327
2019-03-10T19:29:04.298Z,0.706177
2019-03-10T19:34:35.515Z,0.62561
2019-03-10T19:45:59.141Z,0.61554
2019-03-10T19:51:32.064Z,0.62561
2019-03-10T19:56:55.069Z,0.61554
2019-03-10T20:02:19.101Z,0.635681
2019-03-10T20:07:52.191Z,0.716248
2019-03-10T20:13:15.151Z,0.635681
2019-03-10T20:24:39.866Z,0.837097
2019-03-10T20:36:12.033Z,1.068726
2019-03-10T20:41:46.065Z,1.159363
2019-03-10T20:53:11.276Z,1.441345
2019-03-10T20:58:44.587Z,1.612549
2019-03-10T21:04:18.917Z,1.471558
2019-03-10T21:09:41.956Z,1.672974
2019-03-10T21:21:37.409Z,1.793823
2019-03-10T21:27:00.517Z,1.713257
2019-03-10T21:32:32.092Z,1.703186
2019-03-10T21:38:10.183Z,1.63269
2019-03-10T21:43:43.595Z,1.612549
2019-03-10T21:49:19.595Z,1.63269
2019-03-10T21:54:51.813Z,1.642761
2019-03-10T22:00:26.113Z,1.672974
2019-03-10T22:05:49.168Z,1.703186
2019-03-10T22:11:11.973Z,1.773682
2019-03-10T22:16:34.735Z,1.904602
2019-03-10T22:21:57.646Z,2.00531
2019-03-10T22:27:21.070Z,2.035522
2019-03-10T22:32:53.557Z,1.995239
2019-03-10T22:38:16.459Z,2.085876
2019-03-10T22:43:50.386Z,1.975098
2019-03-10T22:49:22.686Z,1.864319
2019-03-10T23:00:35.751Z,1.773682
2019-03-10T23:05:58.765Z,1.75354
2019-03-10T23:11:21.542Z,1.793823
2019-03-10T23:16:45.292Z,1.63269
2019-03-10T23:22:08.034Z,1.642761
2019-03-10T23:27:30.774Z,1.713257
2019-03-10T23:32:53.349Z,1.642761
2019-03-10T23:38:16.080Z,1.612549
2019-03-10T23:43:38.857Z,1.542053
2019-03-10T23:49:01.634Z,1.50177
2019-03-10T23:54:25.864Z,1.703186
2019-03-10T23:59:48.673Z,1.75354
